Time;durP1;ratioP1;P1;durP2;ratioP2;P2;SDS_P1;SDS_P2;PMS_P1;PMS_P2;Temp;Humidity;BMP_temperature;BMP_pressure;BME280_temperature;BME280_humidity;BME280_pressure;Samples;Min_cycle;Max_cycle;Signal;HPM_P1;HPM_P2
2024/04/16 00:01:14;;;;;;;6.53;2.53;;;5.40;1.00;;;;;;5529030;25;20507;-57
2024/04/16 00:03:41;;;;;;;7.83;2.47;;;5.40;1.00;;;;;;5529506;25;20405;-57
2024/04/16 00:06:10;;;;;;;4.23;2.63;;;5.40;99.90;;;;;;5528670;25;20533;-56
2024/04/16 00:08:36;;;;;;;7.53;2.90;;;5.40;99.90;;;;;;5528918;25;20829;-56
2024/04/16 00:11:06;;;;;;;6.50;2.80;;;5.30;99.90;;;;;;5528859;25;20923;-56
2024/04/16 00:13:34;;;;;;;6.07;2.87;;;5.30;99.90;;;;;;5528963;25;20433;-57
2024/04/16 00:16:04;;;;;;;4.40;2.53;;;5.30;99.90;;;;;;5528862;25;20455;-55
2024/04/16 00:18:31;;;;;;;5.80;3.03;;;5.20;99.90;;;;;;5528944;25;20719;-56
2024/04/16 00:21:00;;;;;;;7.03;3.00;;;5.20;99.90;;;;;;5528832;25;20392;-57
2024/04/16 00:23:27;;;;;;;8.57;2.90;;;5.20;99.90;;;;;;5529016;25;20727;-58
2024/04/16 00:25:57;;;;;;;4.57;2.47;;;5.20;99.90;;;;;;5528703;25;20388;-57
2024/04/16 00:28:23;;;;;;;7.07;2.27;;;5.10;99.90;;;;;;5528291;25;20505;-52
2024/04/16 00:30:55;;;;;;;5.93;2.70;;;5.10;4.90;;;;;;5528907;25;20459;-56
2024/04/16 00:33:21;;;;;;;8.20;2.30;;;5.10;99.90;;;;;;5528834;25;20440;-56
2024/04/16 00:35:50;;;;;;;6.90;2.27;;;5.00;99.90;;;;;;5528451;25;20401;-55
2024/04/16 00:38:16;;;;;;;3.73;2.00;;;5.00;99.90;;;;;;5528281;25;20538;-57
2024/04/16 00:40:45;;;;;;;6.43;2.57;;;5.10;99.90;;;;;;5528392;25;20463;-57
2024/04/16 00:43:15;;;;;;;7.07;3.03;;;5.10;99.90;;;;;;5528674;25;20392;-54
2024/04/16 00:45:51;;;;;;;7.60;2.50;;;5.10;99.90;;;;;;5528563;25;20452;-55
2024/04/16 00:48:22;;;;;;;7.57;2.80;;;5.10;1.00;;;;;;5528236;25;20853;-56
2024/04/16 00:50:53;;;;;;;5.17;2.10;;;5.10;45.60;;;;;;5528317;25;20396;-55
2024/04/16 00:53:21;;;;;;;5.80;2.53;;;5.10;99.90;;;;;;5528283;25;20499;-53
2024/04/16 00:55:50;;;;;;;6.80;2.53;;;5.10;99.90;;;;;;5528109;25;20400;-53
2024/04/16 00:58:17;;;;;;;7.77;2.43;;;5.10;99.90;;;;;;5528073;25;20820;-55
2024/04/16 01:00:47;;;;;;;4.90;2.20;;;5.10;1.00;;;;;;5527532;25;20421;-54
2024/04/16 01:03:13;;;;;;;5.13;2.60;;;5.10;1.00;;;;;;5528271;25;20440;-57
2024/04/16 01:05:45;;;;;;;6.30;2.40;;;5.00;1.00;;;;;;5528022;25;20455;-55
2024/04/16 01:08:12;;;;;;;6.10;3.27;;;5.00;1.00;;;;;;5527993;25;20388;-56
2024/04/16 01:10:42;;;;;;;5.50;2.83;;;5.00;99.90;;;;;;5528024;25;20757;-57
2024/04/16 01:13:08;;;;;;;4.10;2.73;;;5.00;1.00;;;;;;5528169;25;20664;-56
2024/04/16 01:15:37;;;;;;;5.17;2.40;;;4.90;99.90;;;;;;5528056;25;20514;-57
2024/04/16 01:18:06;;;;;;;5.23;2.63;;;4.90;90.90;;;;;;5527746;25;20403;-56
2024/04/16 01:20:36;;;;;;;7.20;3.47;;;4.90;99.90;;;;;;5527847;25;20442;-57
2024/04/16 01:23:05;;;;;;;6.63;2.50;;;4.90;99.90;;;;;;5527745;25;20506;-54
2024/04/16 01:25:35;;;;;;;5.73;2.40;;;4.90;1.00;;;;;;5527757;25;20444;-54
2024/04/16 01:28:01;;;;;;;9.57;3.10;;;4.80;1.00;;;;;;5527244;25;20440;-55
2024/04/16 01:30:30;;;;;;;6.83;2.60;;;4.90;23.00;;;;;;5527449;25;20467;-56
2024/04/16 01:32:56;;;;;;;4.07;2.33;;;4.90;1.00;;;;;;5527695;25;20507;-55
2024/04/16 01:35:25;;;;;;;6.43;2.53;;;4.90;1.00;;;;;;5527621;25;20396;-54
2024/04/16 01:37:51;;;;;;;4.60;2.40;;;4.90;1.00;;;;;;5527038;25;20793;-56
2024/04/16 01:40:23;;;;;;;7.27;3.67;;;4.90;99.90;;;;;;5530513;25;20392;-56
2024/04/16 01:42:49;;;;;;;4.20;2.40;;;4.90;1.00;;;;;;5531161;25;20489;-55
2024/04/16 01:45:18;;;;;;;5.23;2.30;;;5.00;1.00;;;;;;5531141;25;20505;-55
2024/04/16 01:47:45;;;;;;;6.67;3.20;;;5.00;1.00;;;;;;5531025;25;20458;-54
2024/04/16 01:50:14;;;;;;;5.77;2.53;;;5.00;1.00;;;;;;5530708;25;20400;-55
2024/04/16 01:52:40;;;;;;;5.30;2.60;;;5.00;1.00;;;;;;5531197;25;20455;-56
2024/04/16 01:55:09;;;;;;;11.30;4.00;;;5.00;1.00;;;;;;5531509;25;20400;-51
2024/04/16 01:57:39;;;;;;;5.27;2.47;;;5.00;83.10;;;;;;5531356;25;20670;-56
2024/04/16 02:00:09;;;;;;;5.30;2.30;;;5.00;1.00;;;;;;5531071;25;20510;-57
2024/04/16 02:02:36;;;;;;;10.80;2.67;;;4.90;1.00;;;;;;5530727;25;20499;-53
2024/04/16 02:05:06;;;;;;;5.00;2.67;;;5.00;1.00;;;;;;5531136;25;20466;-54
2024/04/16 02:07:32;;;;;;;8.50;3.17;;;5.00;19.80;;;;;;5530605;25;20444;-55
2024/04/16 02:10:01;;;;;;;7.30;2.40;;;5.00;35.10;;;;;;5530707;25;20864;-55
2024/04/16 02:12:28;;;;;;;3.77;2.73;;;5.10;1.00;;;;;;5530729;25;20501;-56
2024/04/16 02:14:59;;;;;;;4.27;2.50;;;5.10;1.00;;;;;;5531023;25;20392;-56
2024/04/16 02:17:26;;;;;;;4.17;2.60;;;5.10;1.00;;;;;;5531102;25;20400;-56
2024/04/16 02:19:55;;;;;;;7.60;2.80;;;5.00;1.00;;;;;;5530392;25;20458;-57
2024/04/16 02:22:21;;;;;;;5.97;2.70;;;5.00;99.90;;;;;;5530331;25;20507;-56
2024/04/16 02:24:50;;;;;;;7.20;2.60;;;5.10;99.90;;;;;;5530752;25;20470;-54
2024/04/16 02:27:17;;;;;;;5.20;2.70;;;5.10;99.90;;;;;;5530934;25;20459;-57
2024/04/16 02:29:46;;;;;;;7.80;2.70;;;5.00;1.00;;;;;;5530802;25;20448;-52
2024/04/16 02:32:14;;;;;;;6.63;3.20;;;5.00;1.00;;;;;;5530606;25;20388;-55
2024/04/16 02:34:43;;;;;;;6.60;2.80;;;5.00;1.00;;;;;;5530520;25;20396;-56
2024/04/16 02:37:10;;;;;;;5.37;3.17;;;5.00;1.00;;;;;;5530072;25;20456;-57
2024/04/16 02:39:39;;;;;;;9.87;3.50;;;5.00;1.00;;;;;;5530599;25;20989;-57
2024/04/16 02:42:05;;;;;;;4.80;2.70;;;5.00;1.00;;;;;;5530435;25;20729;-57
2024/04/16 02:44:34;;;;;;;6.90;2.50;;;4.90;1.00;;;;;;5530410;25;20470;-57
2024/04/16 02:47:00;;;;;;;7.90;3.67;;;4.90;52.00;;;;;;5530456;25;20393;-56
2024/04/16 02:49:32;;;;;;;7.07;3.17;;;4.90;1.00;;;;;;5529894;25;20518;-54
2024/04/16 02:51:58;;;;;;;7.73;2.63;;;4.90;29.70;;;;;;5529959;25;20373;-56
2024/04/16 02:54:27;;;;;;;8.93;2.70;;;4.90;1.00;;;;;;5530303;25;20531;-55
2024/04/16 02:56:53;;;;;;;5.90;2.70;;;4.90;1.00;;;;;;5530371;25;20896;-54
2024/04/16 02:59:22;;;;;;;7.87;2.73;;;4.90;1.00;;;;;;5530272;25;20756;-53
2024/04/16 03:01:49;;;;;;;5.40;3.23;;;4.90;1.00;;;;;;5529942;25;20395;-53
2024/04/16 03:04:17;;;;;;;6.90;2.87;;;4.80;1.00;;;;;;5530081;25;20514;-55
2024/04/16 03:06:46;;;;;;;6.97;3.00;;;4.80;1.00;;;;;;5530160;25;20441;-56
2024/04/16 03:09:15;;;;;;;7.50;2.63;;;4.80;1.00;;;;;;5529849;25;20445;-55
2024/04/16 03:11:42;;;;;;;6.60;3.10;;;4.90;1.00;;;;;;5530189;25;20503;-55
2024/04/16 03:14:10;;;;;;;11.63;3.10;;;4.90;1.00;;;;;;5529821;25;20449;-55
2024/04/16 03:16:37;;;;;;;7.37;2.97;;;5.00;1.00;;;;;;5529988;25;20455;-56
2024/04/16 03:19:06;;;;;;;6.63;2.80;;;5.00;1.00;;;;;;5530150;25;20400;-56
2024/04/16 03:21:32;;;;;;;5.83;2.53;;;5.10;1.00;;;;;;5530068;25;20496;-57
2024/04/16 03:24:04;;;;;;;6.87;2.87;;;5.10;1.00;;;;;;5529705;25;20605;-55
2024/04/16 03:26:30;;;;;;;6.57;2.83;;;5.10;39.60;;;;;;5529747;25;20450;-56
2024/04/16 03:28:59;;;;;;;4.50;2.80;;;5.10;99.90;;;;;;5529848;25;20470;-57
2024/04/16 03:31:25;;;;;;;7.57;2.77;;;5.10;1.00;;;;;;5530116;25;20489;-62
2024/04/16 03:33:53;;;;;;;5.10;3.57;;;5.00;99.90;;;;;;5529513;25;20776;-65
2024/04/16 03:36:20;;;;;;;9.90;3.27;;;4.80;1.00;;;;;;5529383;25;20529;-59
2024/04/16 03:38:48;;;;;;;5.90;2.83;;;4.80;99.90;;;;;;5529208;25;20388;-60
2024/04/16 03:41:21;;;;;;;7.30;3.40;;;4.70;1.00;;;;;;5529661;25;20396;-60
2024/04/16 03:43:52;;;;;;;10.80;3.80;;;4.70;27.90;;;;;;5529289;25;20869;-58
2024/04/16 03:46:18;;;;;;;8.23;3.63;;;4.70;1.00;;;;;;5529514;25;20686;-60
2024/04/16 03:48:47;;;;;;;9.13;3.73;;;4.60;99.90;;;;;;5529603;25;20399;-59
2024/04/16 03:51:14;;;;;;;9.43;3.70;;;4.60;1.00;;;;;;5529873;25;20440;-59
2024/04/16 03:53:43;;;;;;;5.97;3.67;;;4.60;21.70;;;;;;5529620;25;20471;-59
2024/04/16 03:56:09;;;;;;;4.73;3.03;;;4.70;5.20;;;;;;5529334;25;20455;-59
2024/04/16 03:58:53;;;;;;;9.23;4.67;;;4.60;1.00;;;;;;5529397;25;20412;-58
2024/04/16 04:01:20;;;;;;;11.87;3.87;;;4.70;46.30;;;;;;5528949;25;20446;-59
2024/04/16 04:03:49;;;;;;;10.57;4.10;;;4.60;1.00;;;;;;5529028;25;20397;-56
2024/04/16 04:06:15;;;;;;;5.47;3.73;;;4.70;1.00;;;;;;5528877;25;20400;-58
2024/04/16 04:08:44;;;;;;;6.70;4.53;;;4.70;1.00;;;;;;5529416;25;20426;-54
2024/04/16 04:11:10;;;;;;;6.90;4.07;;;4.70;99.90;;;;;;5529009;25;20384;-58
2024/04/16 04:13:42;;;;;;;7.40;3.90;;;4.70;99.90;;;;;;5528870;25;20448;-57
2024/04/16 04:16:08;;;;;;;7.53;4.90;;;4.70;99.90;;;;;;5529357;25;20500;-58
2024/04/16 04:18:37;;;;;;;9.80;4.37;;;4.70;1.00;;;;;;5529072;25;20426;-59
2024/04/16 04:21:03;;;;;;;9.20;4.73;;;4.80;1.00;;;;;;5528973;25;20455;-59
2024/04/16 04:23:32;;;;;;;7.27;4.03;;;4.80;99.90;;;;;;5529231;25;20454;-59
2024/04/16 04:26:01;;;;;;;7.00;4.13;;;4.80;1.00;;;;;;5528600;25;20454;-58
2024/04/16 04:28:28;;;;;;;6.70;4.80;;;4.80;99.90;;;;;;5528706;25;20696;-58
2024/04/16 04:31:16;;;;;;;10.00;4.60;;;4.80;1.00;;;;;;5528724;25;20468;-59
2024/04/16 04:33:42;;;;;;;8.03;4.10;;;4.80;1.00;;;;;;5528768;25;20392;-58
2024/04/16 04:36:11;;;;;;;8.50;4.57;;;4.80;1.00;;;;;;5528209;25;20392;-58
2024/04/16 04:38:38;;;;;;;10.67;3.83;;;4.90;99.90;;;;;;5528756;25;20582;-54
2024/04/16 04:41:07;;;;;;;9.03;4.40;;;4.90;1.00;;;;;;5528200;25;20462;-60
2024/04/16 04:43:33;;;;;;;7.80;3.57;;;5.00;1.00;;;;;;5528705;25;20440;-59
2024/04/16 04:46:04;;;;;;;9.20;4.10;;;5.00;1.00;;;;;;5528279;25;20459;-60
2024/04/16 04:48:31;;;;;;;3.90;2.90;;;4.90;1.00;;;;;;5528319;25;20916;-63
2024/04/16 04:50:59;;;;;;;6.17;3.90;;;4.90;1.00;;;;;;5528732;25;20847;-62
2024/04/16 04:53:26;;;;;;;5.70;3.40;;;4.70;1.00;;;;;;5528488;25;20364;-62
2024/04/16 04:55:55;;;;;;;6.23;3.60;;;4.70;1.00;;;;;;5528264;25;20544;-62
2024/04/16 04:58:21;;;;;;;5.80;3.80;;;4.70;1.00;;;;;;5528201;25;20391;-61
2024/04/16 05:00:51;;;;;;;6.10;3.40;;;4.70;54.30;;;;;;5528018;25;20506;-63
2024/04/16 05:03:19;;;;;;;8.70;4.77;;;4.70;1.00;;;;;;5528032;25;20392;-60
2024/04/16 05:05:49;;;;;;;7.03;4.77;;;4.70;1.00;;;;;;5527736;25;20463;-60
2024/04/16 05:08:15;;;;;;;9.37;4.73;;;4.70;1.00;;;;;;5527856;25;20497;-58
2024/04/16 05:10:44;;;;;;;8.00;4.30;;;4.80;1.00;;;;;;5527785;25;20517;-60
2024/04/16 05:13:10;;;;;;;10.47;4.93;;;4.80;1.00;;;;;;5528225;25;20451;-61
2024/04/16 05:15:39;;;;;;;6.80;4.60;;;4.80;89.10;;;;;;5531761;25;20466;-60
2024/04/16 05:18:06;;;;;;;12.43;5.13;;;4.80;99.90;;;;;;5531757;25;20388;-60
2024/04/16 05:20:37;;;;;;;11.77;4.57;;;4.90;99.90;;;;;;5531614;25;20566;-61
2024/04/16 05:23:04;;;;;;;8.30;5.43;;;4.90;99.90;;;;;;5531718;25;20878;-58
2024/04/16 05:25:33;;;;;;;10.90;4.80;;;4.90;1.00;;;;;;5531644;25;20505;-60
2024/04/16 05:27:59;;;;;;;8.47;4.50;;;4.90;1.00;;;;;;5531274;25;20440;-60
2024/04/16 05:30:28;;;;;;;7.83;4.43;;;4.90;99.90;;;;;;5531711;25;20737;-60
2024/04/16 05:32:54;;;;;;;6.27;3.93;;;4.90;99.90;;;;;;5529330;25;20564;-58
2024/04/16 05:35:23;;;;;;;7.67;3.90;;;5.00;99.90;;;;;;5530309;25;20800;-58
2024/04/16 05:37:52;;;;;;;7.30;4.13;;;5.00;1.00;;;;;;5528059;25;20432;-61
2024/04/16 05:40:21;;;;;;;6.10;3.90;;;5.10;99.90;;;;;;5529801;25;20687;-57
2024/04/16 05:42:47;;;;;;;6.93;4.40;;;5.20;99.90;;;;;;5529278;25;20653;-59
2024/04/16 05:45:16;;;;;;;10.27;5.47;;;5.20;99.90;;;;;;5529036;25;20371;-59
2024/04/16 05:47:42;;;;;;;10.80;4.50;;;5.40;99.90;;;;;;5528381;25;20983;-59
2024/04/16 05:50:11;;;;;;;9.93;4.13;;;5.30;99.90;;;;;;5528207;25;20578;-58
2024/04/16 05:52:38;;;;;;;10.10;4.37;;;5.30;1.00;;;;;;5528140;25;20511;-61
2024/04/16 05:55:10;;;;;;;7.30;4.37;;;5.30;1.00;;;;;;5528379;25;20455;-59
2024/04/16 05:57:36;;;;;;;5.03;4.20;;;5.40;1.00;;;;;;5528448;25;20819;-59
2024/04/16 06:00:06;;;;;;;15.63;4.50;;;5.40;1.00;;;;;;5528788;25;20495;-59
2024/04/16 06:02:32;;;;;;;9.10;4.93;;;5.50;1.00;;;;;;5530776;25;20562;-59
2024/04/16 06:05:01;;;;;;;7.27;4.23;;;5.50;1.00;;;;;;5531142;25;20454;-59
2024/04/16 06:07:27;;;;;;;8.23;4.67;;;5.50;1.00;;;;;;5531217;25;20508;-66
2024/04/16 06:09:56;;;;;;;6.33;4.10;;;5.50;1.00;;;;;;5530847;25;20900;-60
2024/04/16 06:12:25;;;;;;;10.67;5.23;;;5.40;99.90;;;;;;5530741;25;20493;-55
2024/04/16 06:14:54;;;;;;;11.43;4.93;;;5.40;99.90;;;;;;5531114;25;20917;-59
2024/04/16 06:17:21;;;;;;;7.03;4.33;;;5.60;1.00;;;;;;5531509;25;20501;-59
2024/04/16 06:19:49;;;;;;;6.77;4.03;;;5.50;1.00;;;;;;5530486;25;20951;-60
2024/04/16 06:22:16;;;;;;;9.93;4.50;;;5.50;1.00;;;;;;5530658;25;20451;-58
2024/04/16 06:24:45;;;;;;;7.10;4.70;;;5.60;99.90;;;;;;5530285;25;20478;-58
2024/04/16 06:27:11;;;;;;;7.00;4.53;;;5.60;99.90;;;;;;5530855;25;20368;-58
2024/04/16 06:29:43;;;;;;;10.20;5.33;;;5.60;1.00;;;;;;5530722;25;20452;-59
2024/04/16 06:32:09;;;;;;;9.37;4.73;;;5.50;99.90;;;;;;5530718;25;20392;-62
2024/04/16 06:34:38;;;;;;;8.57;4.13;;;5.60;45.00;;;;;;5530661;25;20976;-62
2024/04/16 06:37:04;;;;;;;8.30;4.23;;;5.50;99.90;;;;;;5530602;25;20745;-61
2024/04/16 06:39:33;;;;;;;7.60;4.60;;;5.40;1.00;;;;;;5530659;25;20451;-62
2024/04/16 06:42:01;;;;;;;7.90;4.20;;;5.50;99.90;;;;;;5530302;25;20396;-62
2024/04/16 06:44:31;;;;;;;7.23;4.50;;;5.40;9.70;;;;;;5530422;25;20923;-63
2024/04/16 06:47:00;;;;;;;6.10;4.30;;;5.40;99.90;;;;;;5530608;25;20647;-62
2024/04/16 06:49:29;;;;;;;6.00;4.53;;;5.40;1.00;;;;;;5530860;25;20476;-63
2024/04/16 06:51:56;;;;;;;6.03;5.43;;;5.30;1.00;;;;;;5530435;25;20788;-63
2024/04/16 06:54:25;;;;;;;7.23;5.63;;;5.30;1.00;;;;;;5530610;25;20899;-63
2024/04/16 06:56:51;;;;;;;6.97;4.90;;;5.30;37.90;;;;;;5530601;25;20494;-65
2024/04/16 06:59:20;;;;;;;6.10;3.93;;;5.30;1.00;;;;;;5530008;25;20527;-62
2024/04/16 07:01:46;;;;;;;7.93;4.40;;;5.20;22.00;;;;;;5530089;25;20700;-65
2024/04/16 07:04:18;;;;;;;6.73;4.17;;;5.20;11.40;;;;;;5530602;25;20438;-69
2024/04/16 07:06:44;;;;;;;5.67;3.57;;;5.10;1.00;;;;;;5529654;25;20392;-66
2024/04/16 07:09:13;;;;;;;4.97;2.93;;;5.00;99.90;;;;;;5528537;25;20470;-68
2024/04/16 07:11:39;;;;;;;5.00;2.90;;;4.80;99.90;;;;;;5529497;25;20649;-66
2024/04/16 07:14:09;;;;;;;3.70;2.80;;;4.70;99.90;;;;;;5529532;25;20855;-67
2024/04/16 07:16:35;;;;;;;9.30;3.60;;;4.70;91.30;;;;;;5529975;25;20556;-65
2024/04/16 07:19:04;;;;;;;7.10;2.80;;;4.70;1.00;;;;;;5530149;25;20458;-64
2024/04/16 07:21:33;;;;;;;4.53;2.67;;;4.70;99.90;;;;;;5529406;25;20778;-68
2024/04/16 07:24:02;;;;;;;4.00;2.63;;;4.70;95.80;;;;;;5527301;25;20471;-68
2024/04/16 07:26:28;;;;;;;5.70;3.00;;;4.60;99.90;;;;;;5527599;25;20737;-65
2024/04/16 07:28:58;;;;;;;3.40;2.80;;;4.60;99.90;;;;;;5527467;25;20451;-67
2024/04/16 07:31:24;;;;;;;5.53;2.43;;;4.60;99.90;;;;;;5527126;25;20519;-63
2024/04/16 07:33:53;;;;;;;3.67;2.50;;;4.70;99.90;;;;;;5526615;25;20435;-67
2024/04/16 07:36:19;;;;;;;5.47;2.80;;;4.70;99.90;;;;;;5526318;25;21723;-66
2024/04/16 07:38:51;;;;;;;3.97;2.40;;;4.70;31.40;;;;;;5529986;25;20384;-65
2024/04/16 07:41:17;;;;;;;3.63;2.00;;;4.70;99.90;;;;;;5530049;25;20391;-69
2024/04/16 07:43:46;;;;;;;5.30;2.90;;;4.70;99.90;;;;;;5529920;25;20812;-66
2024/04/16 07:46:12;;;;;;;3.73;2.10;;;4.60;99.90;;;;;;5529476;25;20678;-69
2024/04/16 07:48:41;;;;;;;3.60;1.93;;;4.60;99.90;;;;;;5529611;25;20455;-67
2024/04/16 07:51:07;;;;;;;3.40;2.50;;;4.60;99.90;;;;;;5529508;25;20466;-72
2024/04/16 07:53:37;;;;;;;2.90;2.10;;;4.70;99.90;;;;;;5529667;25;20400;-70
2024/04/16 07:56:07;;;;;;;2.80;1.87;;;4.70;99.90;;;;;;5529316;25;20364;-69
2024/04/16 07:58:35;;;;;;;3.20;2.00;;;4.80;99.90;;;;;;5529700;25;20769;-68
2024/04/16 08:01:02;;;;;;;3.53;2.40;;;4.80;99.90;;;;;;5529044;25;20802;-67
2024/04/16 08:03:31;;;;;;;3.80;2.00;;;4.90;99.90;;;;;;5529556;25;20388;-63
2024/04/16 08:05:57;;;;;;;4.00;2.30;;;4.90;99.90;;;;;;5529425;25;20455;-65
2024/04/16 08:08:26;;;;;;;3.00;2.07;;;4.90;99.90;;;;;;5529489;25;20738;-64
2024/04/16 08:10:53;;;;;;;4.30;2.90;;;5.00;99.90;;;;;;5529599;25;20419;-68
2024/04/16 08:13:25;;;;;;;6.40;2.60;;;5.10;99.90;;;;;;5529530;25;20454;-63
2024/04/16 08:15:51;;;;;;;6.60;3.20;;;5.20;99.90;;;;;;5529166;25;20730;-65
2024/04/16 08:18:20;;;;;;;6.00;3.30;;;5.30;99.90;;;;;;5528970;25;20417;-64
2024/04/16 08:20:46;;;;;;;5.20;3.80;;;5.20;99.90;;;;;;5529172;25;20412;-67
2024/04/16 08:23:15;;;;;;;4.47;3.30;;;5.30;99.90;;;;;;5529272;25;20558;-71
2024/04/16 08:25:43;;;;;;;5.43;3.90;;;5.40;1.00;;;;;;5529360;25;20466;-63
2024/04/16 08:28:12;;;;;;;5.53;4.20;;;5.40;1.00;;;;;;5528860;25;20459;-63
2024/04/16 08:30:41;;;;;;;4.90;4.13;;;5.50;1.00;;;;;;5528484;25;20441;-63
2024/04/16 08:33:14;;;;;;;6.63;4.83;;;5.50;1.00;;;;;;5528501;25;20580;-59
2024/04/16 08:35:41;;;;;;;8.80;4.73;;;5.50;1.00;;;;;;5528971;25;20979;-60
2024/04/16 08:38:10;;;;;;;7.43;4.80;;;5.60;1.00;;;;;;5528565;25;20902;-64
2024/04/16 08:40:36;;;;;;;9.30;5.53;;;5.60;1.00;;;;;;5528176;25;20435;-64
2024/04/16 08:43:06;;;;;;;9.40;5.00;;;5.70;1.00;;;;;;5528762;25;20450;-66
2024/04/16 08:45:33;;;;;;;7.63;4.70;;;5.70;53.40;;;;;;5528568;25;20795;-67
2024/04/16 08:48:06;;;;;;;8.17;4.60;;;5.80;37.50;;;;;;5529298;25;20743;-63
2024/04/16 08:50:33;;;;;;;12.83;5.00;;;5.80;62.60;;;;;;5532207;25;20395;-64
2024/04/16 08:53:03;;;;;;;7.43;4.73;;;5.90;99.90;;;;;;5532570;25;20368;-60
2024/04/16 08:55:32;;;;;;;9.03;5.20;;;5.90;99.90;;;;;;5532277;25;20447;-61
2024/04/16 08:58:01;;;;;;;11.60;5.13;;;6.00;95.40;;;;;;5532298;25;20510;-63
2024/04/16 09:00:27;;;;;;;7.00;5.10;;;6.00;99.90;;;;;;5531255;25;20764;-62
2024/04/16 09:02:56;;;;;;;12.60;5.27;;;6.10;99.90;;;;;;5532119;25;20431;-64
2024/04/16 09:05:26;;;;;;;11.77;5.03;;;6.20;99.90;;;;;;5531843;25;20798;-65
2024/04/16 09:07:55;;;;;;;8.63;5.10;;;6.20;99.90;;;;;;5531603;25;20434;-66
2024/04/16 09:10:23;;;;;;;10.80;5.30;;;6.30;99.90;;;;;;5531717;25;20680;-67
2024/04/16 09:12:53;;;;;;;13.70;5.57;;;6.30;99.90;;;;;;5531718;25;20570;-67
2024/04/16 09:15:23;;;;;;;12.77;6.03;;;6.40;99.90;;;;;;5531276;25;20397;-67
2024/04/16 09:17:50;;;;;;;8.10;4.90;;;6.40;99.90;;;;;;5531782;25;20891;-65
2024/04/16 09:20:20;;;;;;;8.90;5.20;;;6.50;99.90;;;;;;5531332;25;20873;-65
2024/04/16 09:22:50;;;;;;;15.27;5.53;;;6.50;99.90;;;;;;5531318;25;20536;-63
2024/04/16 09:25:19;;;;;;;6.10;5.37;;;6.60;99.90;;;;;;5531662;25;20530;-66
2024/04/16 09:27:47;;;;;;;14.93;5.97;;;6.70;99.90;;;;;;5531072;25;20439;-63
2024/04/16 09:30:17;;;;;;;14.57;5.50;;;6.70;99.90;;;;;;5531075;25;20396;-65
2024/04/16 09:32:45;;;;;;;12.17;5.37;;;6.70;70.70;;;;;;5531037;25;20392;-66
2024/04/16 09:35:15;;;;;;;6.73;4.30;;;6.70;74.20;;;;;;5531630;25;20791;-65
2024/04/16 09:37:42;;;;;;;8.50;5.90;;;6.70;27.70;;;;;;5530997;25;20450;-67
2024/04/16 09:40:17;;;;;;;8.20;5.37;;;6.80;51.60;;;;;;5529097;25;20507;-65
2024/04/16 09:42:43;;;;;;;8.30;4.90;;;6.90;53.90;;;;;;5531259;25;20415;-68
2024/04/16 09:45:12;;;;;;;8.87;6.20;;;7.00;71.20;;;;;;5530392;25;20934;-65
2024/04/16 09:47:40;;;;;;;6.03;5.43;;;7.00;89.10;;;;;;5529850;25;20385;-69
2024/04/16 09:50:10;;;;;;;6.70;4.60;;;7.10;47.30;;;;;;5527642;25;20531;-63
2024/04/16 09:52:36;;;;;;;9.97;4.97;;;7.10;9.20;;;;;;5529749;25;20436;-63
2024/04/16 09:55:08;;;;;;;12.37;4.90;;;7.20;1.00;;;;;;5530953;25;20714;-63
2024/04/16 09:57:41;;;;;;;8.90;4.30;;;7.50;27.00;;;;;;5531707;25;20454;-63
2024/04/16 10:00:12;;;;;;;6.07;4.40;;;7.50;1.00;;;;;;5529996;25;20781;-63
2024/04/16 10:02:40;;;;;;;8.37;4.57;;;7.50;1.00;;;;;;5530743;25;20475;-63
2024/04/16 10:05:13;;;;;;;5.63;4.37;;;7.60;1.00;;;;;;5531167;25;20511;-63
2024/04/16 10:07:40;;;;;;;6.60;4.80;;;7.70;1.00;;;;;;5531385;25;20474;-62
2024/04/16 10:10:11;;;;;;;6.03;5.40;;;7.70;99.90;;;;;;5530905;25;20967;-64
2024/04/16 10:12:42;;;;;;;4.83;4.33;;;7.80;99.90;;;;;;5531170;25;20505;-62
2024/04/16 10:15:11;;;;;;;6.27;4.10;;;7.50;1.00;;;;;;5531224;25;20380;-64
2024/04/16 10:17:50;;;;;;;5.10;3.80;;;7.60;1.00;;;;;;5531038;25;20928;-61
2024/04/16 10:20:20;;;;;;;8.60;5.30;;;7.70;1.00;;;;;;5530746;25;20470;-61
2024/04/16 10:22:54;;;;;;;8.53;5.73;;;8.00;1.00;;;;;;5530690;25;20388;-61
2024/04/16 10:25:30;;;;;;;7.30;5.40;;;8.70;1.00;;;;;;5530981;25;20488;-59
2024/04/16 10:28:02;;;;;;;6.53;4.40;;;8.90;99.90;;;;;;5531143;25;20442;-61
2024/04/16 10:30:33;;;;;;;9.40;5.67;;;9.20;99.90;;;;;;5530561;25;20451;-60
2024/04/16 10:32:59;;;;;;;8.17;5.20;;;9.10;24.60;;;;;;5530726;25;20459;-60
2024/04/16 10:35:30;;;;;;;7.83;5.13;;;8.90;1.00;;;;;;5530637;25;20439;-60
2024/04/16 10:37:57;;;;;;;7.90;5.00;;;8.80;1.00;;;;;;5530707;25;20580;-59
2024/04/16 10:40:30;;;;;;;7.60;4.83;;;8.70;1.00;;;;;;5530443;25;20979;-61
2024/04/16 10:43:00;;;;;;;5.57;4.90;;;8.90;32.10;;;;;;5500704;25;20454;-60
2024/04/16 10:45:31;;;;;;;6.83;4.70;;;9.00;99.00;;;;;;5493479;26;20401;-58
2024/04/16 10:47:58;;;;;;;6.20;4.00;;;9.00;17.30;;;;;;5493395;26;20448;-58
2024/04/16 10:50:27;;;;;;;6.40;3.27;;;9.00;22.50;;;;;;5493351;26;20460;-59
2024/04/16 10:52:55;;;;;;;4.60;2.87;;;8.80;1.00;;;;;;5493380;26;20394;-62
2024/04/16 10:55:25;;;;;;;6.23;3.00;;;8.70;1.00;;;;;;5493457;26;20777;-59
2024/04/16 10:57:51;;;;;;;4.37;3.40;;;9.00;1.00;;;;;;5492651;26;20905;-60
2024/04/16 11:00:23;;;;;;;4.47;2.70;;;9.40;1.00;;;;;;5492295;26;20443;-58
2024/04/16 11:02:51;;;;;;;5.03;3.10;;;9.60;1.00;;;;;;5492307;26;20806;-59
2024/04/16 11:05:23;;;;;;;5.63;3.50;;;9.70;1.00;;;;;;5491466;26;20541;-58
2024/04/16 11:07:50;;;;;;;9.50;2.90;;;9.80;1.00;;;;;;5490629;26;20448;-58
2024/04/16 11:10:19;;;;;;;4.47;2.90;;;10.00;1.00;;;;;;5502955;26;20466;-58
2024/04/16 11:12:46;;;;;;;5.23;2.60;;;10.30;99.90;;;;;;5525109;25;20485;-59
2024/04/16 11:15:19;;;;;;;7.60;3.00;;;10.60;1.00;;;;;;5527053;25;20816;-58
2024/04/16 11:17:48;;;;;;;4.57;2.73;;;10.40;99.90;;;;;;5527545;25;20743;-59
2024/04/16 11:20:17;;;;;;;6.67;3.53;;;10.30;1.00;;;;;;5526335;25;20466;-59
2024/04/16 11:22:44;;;;;;;5.67;2.93;;;10.30;99.90;;;;;;5527900;25;20746;-58
2024/04/16 11:25:16;;;;;;;5.97;2.60;;;10.40;99.90;;;;;;5527660;25;20799;-57
2024/04/16 11:27:43;;;;;;;5.43;2.60;;;10.20;99.90;;;;;;5527152;25;20857;-58
2024/04/16 11:30:13;;;;;;;5.93;2.30;;;9.90;99.90;;;;;;5526641;25;21022;-65
2024/04/16 11:32:41;;;;;;;4.57;2.40;;;9.50;99.90;;;;;;5526861;25;20448;-61
2024/04/16 11:35:13;;;;;;;3.37;2.00;;;8.70;1.00;;;;;;5526700;25;20974;-64
2024/04/16 11:37:42;;;;;;;6.10;2.37;;;7.70;1.00;;;;;;5528004;25;20548;-67
2024/04/16 11:40:12;;;;;;;4.10;2.30;;;7.20;1.00;;;;;;5527347;25;20443;-62
2024/04/16 11:42:39;;;;;;;5.43;3.30;;;7.20;28.50;;;;;;5527981;25;21049;-62
2024/04/16 11:45:09;;;;;;;4.10;3.53;;;7.70;99.90;;;;;;5529595;25;20511;-60
2024/04/16 11:47:36;;;;;;;5.97;3.70;;;8.60;99.90;;;;;;5529384;25;20448;-60
2024/04/16 11:50:07;;;;;;;6.30;3.57;;;9.30;99.90;;;;;;5528953;25;20507;-60
2024/04/16 11:52:36;;;;;;;5.50;3.10;;;9.50;1.00;;;;;;5529311;25;20384;-61
2024/04/16 11:55:05;;;;;;;4.00;2.87;;;9.70;1.00;;;;;;5528911;25;20452;-63
2024/04/16 11:57:31;;;;;;;9.47;2.60;;;9.50;1.00;;;;;;5529111;25;20518;-63
2024/04/16 12:00:00;;;;;;;4.20;2.67;;;9.60;1.00;;;;;;5529002;25;20447;-62
2024/04/16 12:02:27;;;;;;;7.30;2.60;;;10.10;1.00;;;;;;5525921;25;20752;-61
2024/04/16 12:04:56;;;;;;;3.10;2.27;;;11.10;1.00;;;;;;5526277;25;20921;-62
2024/04/16 12:07:22;;;;;;;4.80;1.70;;;11.90;1.00;;;;;;5525954;25;20511;-60
2024/04/16 12:09:54;;;;;;;4.00;1.97;;;12.30;99.90;;;;;;5525741;25;20526;-59
2024/04/16 12:12:20;;;;;;;3.53;1.97;;;11.90;1.00;;;;;;5524634;25;20558;-59
2024/04/16 12:14:49;;;;;;;3.70;2.40;;;12.20;99.90;;;;;;5526042;25;20901;-59
2024/04/16 12:17:16;;;;;;;5.53;2.50;;;11.90;99.90;;;;;;5528574;25;20454;-58
2024/04/16 12:19:46;;;;;;;5.00;2.50;;;11.30;99.90;;;;;;5527927;25;20510;-59
2024/04/16 12:22:12;;;;;;;3.83;2.50;;;10.90;99.90;;;;;;5525270;25;20879;-59
2024/04/16 12:24:41;;;;;;;5.63;2.47;;;10.40;99.90;;;;;;5525176;25;20459;-60
2024/04/16 12:27:10;;;;;;;7.40;2.53;;;10.10;99.90;;;;;;5525750;25;20844;-60
2024/04/16 12:29:40;;;;;;;5.57;3.00;;;10.10;99.90;;;;;;5522947;25;20462;-61
2024/04/16 12:32:06;;;;;;;3.57;1.97;;;10.00;1.00;;;;;;5525681;25;20467;-60
2024/04/16 12:34:36;;;;;;;3.00;2.10;;;9.40;99.90;;;;;;5526455;25;20467;-61
2024/04/16 12:37:02;;;;;;;4.10;2.17;;;8.80;34.70;;;;;;5528283;25;20470;-62
2024/04/16 12:39:31;;;;;;;3.47;2.07;;;8.70;1.00;;;;;;5528447;25;20396;-61
2024/04/16 12:42:00;;;;;;;5.47;1.57;;;8.50;1.00;;;;;;5526000;25;20458;-65
2024/04/16 12:44:32;;;;;;;2.60;1.30;;;7.70;1.00;;;;;;5525901;25;20462;-66
2024/04/16 12:46:58;;;;;;;3.80;1.80;;;7.00;1.00;;;;;;5526501;25;20499;-68
2024/04/16 12:49:28;;;;;;;2.40;1.60;;;6.90;99.90;;;;;;5525966;25;20797;-67
2024/04/16 12:51:55;;;;;;;2.40;1.47;;;6.90;99.90;;;;;;5525215;25;20912;-67
2024/04/16 12:54:25;;;;;;;4.40;2.20;;;7.10;99.90;;;;;;5525112;25;20472;-65
2024/04/16 12:56:52;;;;;;;5.97;1.90;;;7.20;99.90;;;;;;5526325;25;20392;-65
2024/04/16 12:59:21;;;;;;;5.13;1.80;;;7.60;99.90;;;;;;5526991;25;20459;-66
2024/04/16 13:01:50;;;;;;;4.10;2.20;;;8.00;99.90;;;;;;5525147;25;20947;-65
2024/04/16 13:04:19;;;;;;;5.03;2.40;;;8.30;99.90;;;;;;5525136;25;20399;-65
2024/04/16 13:06:46;;;;;;;3.27;2.07;;;8.50;99.90;;;;;;5525930;25;20380;-62